createdAt,value
2023-11-29T00:00:08.953Z,95283.53
2023-11-29T00:02:42.088Z,95322.22
2023-11-29T00:05:11.684Z,95315.50
2023-11-29T00:07:42.329Z,95300.16
2023-11-29T00:10:10.099Z,95340.16
2023-11-29T00:12:38.619Z,95334.44
2023-11-29T00:15:06.499Z,95336.66
2023-11-29T00:17:34.524Z,95304.47
2023-11-29T00:20:01.933Z,95281.94
2023-11-29T00:22:29.230Z,95322.50
2023-11-29T00:24:56.430Z,95323.38
2023-11-29T00:27:23.440Z,95281.47
2023-11-29T00:29:50.520Z,95308.00
2023-11-29T00:32:17.691Z,95320.41
2023-11-29T00:34:44.683Z,95329.94
2023-11-29T00:37:11.734Z,95314.69
2023-11-29T00:39:38.903Z,95307.31
2023-11-29T00:42:05.969Z,95290.56
2023-11-29T00:44:33.695Z,95293.06
2023-11-29T00:47:00.770Z,95292.00
2023-11-29T00:49:27.746Z,95291.16
2023-11-29T00:51:54.756Z,95297.56
2023-11-29T00:54:21.842Z,95302.13
2023-11-29T00:56:49.174Z,95309.50
2023-11-29T01:39:27.745Z,95327.91
2023-11-29T01:41:54.719Z,95331.91
2023-11-29T01:44:21.822Z,95330.44
2023-11-29T01:46:49.613Z,95343.31
2023-11-29T01:49:20.357Z,95333.25
2023-11-29T01:51:47.906Z,95346.88
2023-11-29T01:54:16.244Z,95346.06
2023-11-29T01:56:43.427Z,95361.34
2023-11-29T01:59:10.514Z,95367.09
2023-11-29T02:01:37.764Z,95299.88
2023-11-29T02:04:05.871Z,95376.56
2023-11-29T02:06:32.944Z,95364.06
2023-11-29T02:09:00.167Z,95371.84
2023-11-29T02:11:29.856Z,95358.97
2023-11-29T02:13:57.023Z,95350.91
2023-11-29T02:16:24.124Z,95368.91
2023-11-29T02:18:51.346Z,95363.34
2023-11-29T02:21:20.109Z,95377.31
2023-11-29T02:24:02.097Z,95406.84
2023-11-29T02:26:29.724Z,95365.25
2023-11-29T02:28:56.858Z,95421.63
2023-11-29T02:31:24.001Z,95388.22
2023-11-29T02:33:51.018Z,95412.09
2023-11-29T02:36:18.594Z,95418.56
2023-11-29T02:38:45.628Z,95415.72
2023-11-29T02:41:12.778Z,95435.88
2023-11-29T02:43:39.849Z,95429.66
2023-11-29T02:46:06.913Z,95421.13
2023-11-29T02:48:34.065Z,95438.75
2023-11-29T02:51:01.353Z,95453.19
2023-11-29T02:53:28.429Z,95459.88
2023-11-29T02:55:55.471Z,95458.47
2023-11-29T02:58:22.521Z,95454.19
2023-11-29T03:01:16.981Z,95454.47
2023-11-29T03:03:44.046Z,95460.28
2023-11-29T03:06:11.125Z,95474.31
2023-11-29T03:08:39.077Z,95464.56
2023-11-29T03:11:06.478Z,95483.72
2023-11-29T03:13:33.482Z,95486.72
2023-11-29T03:16:04.063Z,95450.97
2023-11-29T03:18:31.936Z,95484.44
2023-11-29T03:20:59.075Z,95479.13
2023-11-29T03:23:26.117Z,95491.31
2023-11-29T03:25:53.168Z,95504.44
2023-11-29T03:28:20.252Z,95509.56
2023-11-29T03:30:47.291Z,95507.56
2023-11-29T03:33:14.937Z,95498.88
2023-11-29T03:35:42.228Z,95471.72
2023-11-29T03:38:11.329Z,95520.31
2023-11-29T03:40:38.448Z,95518.34
2023-11-29T03:43:05.481Z,95514.94
2023-11-29T03:45:32.512Z,95520.69
2023-11-29T03:47:59.888Z,95529.28
2023-11-29T03:50:28.377Z,95499.28
2023-11-29T03:52:55.555Z,95523.09
2023-11-29T03:55:22.618Z,95531.84
2023-11-29T03:57:49.712Z,95539.41
2023-11-29T04:00:17.154Z,95504.94
2023-11-29T04:02:45.281Z,95532.53
2023-11-29T04:05:12.714Z,95551.28
2023-11-29T04:07:39.895Z,95547.78
2023-11-29T04:10:10.066Z,95551.72
2023-11-29T04:12:38.668Z,95553.47
2023-11-29T04:15:06.309Z,95573.81
2023-11-29T04:17:33.694Z,95576.84
2023-11-29T04:20:00.871Z,95595.63
2023-11-29T04:22:27.853Z,95563.25
2023-11-29T04:24:54.847Z,95589.66
2023-11-29T04:27:22.522Z,95589.75
2023-11-29T04:29:49.789Z,95604.59
2023-11-29T04:32:17.202Z,95588.38
2023-11-29T04:34:47.868Z,95571.06
2023-11-29T04:37:16.482Z,95587.53
2023-11-29T04:39:50.144Z,95582.94
2023-11-29T04:42:17.355Z,95602.38
2023-11-29T04:44:45.073Z,95599.19
2023-11-29T04:47:12.288Z,95595.31
2023-11-29T04:49:41.307Z,95611.25
2023-11-29T04:52:09.692Z,95606.09
2023-11-29T04:54:37.069Z,95589.72
2023-11-29T04:57:04.642Z,95630.34
2023-11-29T04:59:32.471Z,95617.41
2023-11-29T05:02:00.492Z,95638.97
2023-11-29T05:04:28.232Z,95641.06
2023-11-29T05:06:55.450Z,95642.75
2023-11-29T05:09:22.996Z,95626.53
2023-11-29T05:11:51.842Z,95652.84
2023-11-29T05:14:19.270Z,95639.34
2023-11-29T05:16:46.305Z,95636.88
2023-11-29T05:19:13.427Z,95631.25
2023-11-29T05:21:40.558Z,95660.53
2023-11-29T05:24:07.938Z,95657.78
2023-11-29T05:26:35.021Z,95657.50
2023-11-29T05:29:04.061Z,95661.66
2023-11-29T05:31:31.299Z,95657.56
2023-11-29T05:33:58.352Z,95658.13
2023-11-29T05:36:26.325Z,95651.53
2023-11-29T05:38:53.481Z,95660.97
2023-11-29T05:41:20.510Z,95657.47
2023-11-29T05:43:47.660Z,95675.53
2023-11-29T05:46:14.845Z,95667.84
2023-11-29T05:48:43.518Z,95696.31
2023-11-29T05:51:12.915Z,95686.16
2023-11-29T05:53:40.151Z,95705.63
2023-11-29T05:56:07.908Z,95703.81
2023-11-29T05:58:41.028Z,95712.28
2023-11-29T06:01:08.788Z,95711.16
2023-11-29T06:03:36.815Z,95659.44
2023-11-29T06:06:04.110Z,95681.97
2023-11-29T06:08:31.323Z,95719.69
2023-11-29T06:10:58.828Z,95704.31
2023-11-29T06:13:25.858Z,95732.53
2023-11-29T06:15:52.963Z,95720.50
2023-11-29T06:18:21.229Z,95733.59
2023-11-29T06:20:48.381Z,95739.16
2023-11-29T06:23:15.626Z,95727.84
2023-11-29T06:25:43.622Z,95744.00
2023-11-29T06:28:10.727Z,95735.84
2023-11-29T06:30:37.886Z,95757.28
2023-11-29T06:33:05.702Z,95720.13
2023-11-29T06:35:33.032Z,95757.19
2023-11-29T06:38:05.909Z,95759.34
2023-11-29T06:40:37.668Z,95737.66
2023-11-29T06:43:08.773Z,95749.59
2023-11-29T06:45:36.905Z,95762.81
2023-11-29T06:48:04.910Z,95771.38
2023-11-29T06:50:32.156Z,95767.97
2023-11-29T06:53:01.409Z,95765.25
2023-11-29T06:55:30.045Z,95760.00
2023-11-29T06:57:58.889Z,95773.19
2023-11-29T07:00:27.798Z,95787.47
2023-11-29T07:02:55.453Z,95798.63
2023-11-29T07:05:22.553Z,95808.59
2023-11-29T07:07:52.031Z,95811.69
2023-11-29T07:10:22.943Z,95820.69
2023-11-29T07:12:50.187Z,95812.63
2023-11-29T07:15:17.561Z,95800.19
2023-11-29T07:17:44.835Z,95824.69
2023-11-29T07:20:12.326Z,95819.22
2023-11-29T07:22:39.636Z,95800.09
2023-11-29T07:25:08.018Z,95795.59
2023-11-29T07:27:35.264Z,95806.16
2023-11-29T07:30:02.842Z,95815.44
2023-11-29T07:32:33.740Z,95835.38
2023-11-29T07:35:00.948Z,95836.13
2023-11-29T07:37:30.706Z,95833.78
2023-11-29T07:39:57.989Z,95823.59
2023-11-29T07:42:26.053Z,95836.56
2023-11-29T07:44:56.246Z,95841.19
2023-11-29T07:47:25.017Z,95846.38
2023-11-29T07:49:52.032Z,95844.72
2023-11-29T07:52:19.210Z,95784.88
2023-11-29T07:54:46.377Z,95837.31
2023-11-29T07:57:13.749Z,95804.06
2023-11-29T08:02:46.344Z,95821.22
2023-11-29T08:05:17.312Z,95826.75
2023-11-29T08:07:44.376Z,95803.78
2023-11-29T08:10:12.624Z,95829.00
2023-11-29T08:12:39.672Z,95834.16
2023-11-29T08:15:07.329Z,95835.09
2023-11-29T08:17:34.825Z,95851.16
2023-11-29T08:20:02.193Z,95867.69
2023-11-29T08:22:34.288Z,95875.34
2023-11-29T08:25:01.527Z,95841.69
2023-11-29T08:27:30.886Z,95874.63
2023-11-29T08:29:58.601Z,95866.84
2023-11-29T08:32:28.854Z,95839.19
2023-11-29T08:34:56.058Z,95805.91
2023-11-29T08:37:24.319Z,95833.63
2023-11-29T08:39:51.689Z,95874.66
2023-11-29T08:42:19.485Z,95840.69
2023-11-29T08:44:46.757Z,95873.47
2023-11-29T08:47:14.068Z,95836.28
2023-11-29T08:49:41.436Z,95866.44
2023-11-29T08:52:08.420Z,95861.75
2023-11-29T08:54:35.568Z,95874.13
2023-11-29T08:57:03.085Z,95871.66
2023-11-29T08:59:30.238Z,95877.72
2023-11-29T09:01:57.506Z,95858.41
2023-11-29T09:04:27.118Z,95859.34
2023-11-29T09:06:54.762Z,95820.69
2023-11-29T09:09:21.817Z,95795.13
2023-11-29T09:11:49.040Z,95855.38
2023-11-29T09:14:16.220Z,95861.09
2023-11-29T09:16:43.377Z,95770.03
2023-11-29T09:19:11.873Z,95855.19
2023-11-29T09:21:39.879Z,95797.47
2023-11-29T09:24:07.397Z,95857.28
2023-11-29T09:26:34.536Z,95864.44
2023-11-29T09:29:03.281Z,95819.56
2023-11-29T09:31:30.428Z,95783.25
2023-11-29T09:33:58.741Z,95850.44
2023-11-29T09:36:26.802Z,95862.03
2023-11-29T09:38:53.985Z,95842.28
2023-11-29T09:41:22.594Z,95814.25
2023-11-29T09:43:50.713Z,95862.91
2023-11-29T09:46:18.555Z,95830.28
2023-11-29T09:48:46.253Z,95857.47
2023-11-29T09:51:13.490Z,95826.78
2023-11-29T09:53:40.591Z,95836.22
2023-11-29T09:56:10.300Z,95825.75
2023-11-29T09:58:37.368Z,95825.03
2023-11-29T10:01:04.951Z,95753.28
2023-11-29T10:03:32.782Z,95850.34
2023-11-29T10:06:00.030Z,95847.94
2023-11-29T10:08:29.217Z,95833.00
2023-11-29T10:10:56.633Z,95788.91
2023-11-29T10:13:24.079Z,95827.16
2023-11-29T10:15:52.203Z,95854.53
2023-11-29T10:18:20.913Z,95836.53
2023-11-29T10:21:00.497Z,95826.16
2023-11-29T10:23:34.886Z,95846.38
2023-11-29T10:26:02.220Z,95834.25
2023-11-29T10:28:29.267Z,95854.16
2023-11-29T10:30:57.770Z,95853.13
2023-11-29T10:33:27.156Z,95858.41
2023-11-29T10:35:55.614Z,95853.72
2023-11-29T10:38:25.107Z,95853.22
2023-11-29T10:40:54.001Z,95863.69
2023-11-29T10:43:27.323Z,95832.59
2023-11-29T10:46:07.848Z,95844.91
2023-11-29T10:48:38.614Z,95833.66
2023-11-29T10:51:07.008Z,95835.22
2023-11-29T10:53:34.375Z,95845.03
2023-11-29T10:56:05.116Z,95851.75
2023-11-29T10:59:03.132Z,95850.47
2023-11-29T11:01:35.545Z,95845.88
2023-11-29T11:04:04.644Z,95846.59
2023-11-29T11:06:31.864Z,95860.84
2023-11-29T11:08:59.090Z,95869.34
2023-11-29T11:11:48.719Z,95853.88
2023-11-29T11:14:23.732Z,95843.03
2023-11-29T11:17:04.262Z,95872.06
2023-11-29T11:19:35.276Z,95858.63
2023-11-29T11:22:04.406Z,95806.75
2023-11-29T11:24:56.395Z,95861.59
2023-11-29T11:27:34.054Z,95861.91
2023-11-29T11:30:13.710Z,95855.88
2023-11-29T11:32:43.642Z,95867.00
2023-11-29T11:35:24.808Z,95869.72
2023-11-29T11:37:54.637Z,95863.34
2023-11-29T11:40:23.910Z,95872.59
2023-11-29T11:42:52.702Z,95847.72
2023-11-29T11:45:20.370Z,95804.75
2023-11-29T11:47:47.675Z,95827.38
2023-11-29T11:50:17.954Z,95858.31
2023-11-29T11:52:45.570Z,95819.03
2023-11-29T11:55:14.596Z,95859.72
2023-11-29T11:57:41.900Z,95861.03
2023-11-29T12:00:10.533Z,95829.09
2023-11-29T12:02:41.004Z,95830.63
2023-11-29T12:05:09.204Z,95852.88
2023-11-29T12:07:40.975Z,95861.63
2023-11-29T12:10:11.934Z,95843.75
2023-11-29T12:12:44.478Z,95850.50
2023-11-29T12:15:17.153Z,95797.97
2023-11-29T12:17:46.149Z,95867.53
2023-11-29T12:20:15.070Z,95842.56
2023-11-29T12:22:45.574Z,95824.72
2023-11-29T12:25:14.976Z,95861.63
2023-11-29T12:27:50.651Z,95849.44
2023-11-29T12:30:18.581Z,95853.91
2023-11-29T12:32:46.307Z,95865.06
2023-11-29T12:35:16.817Z,95858.19
2023-11-29T12:37:49.444Z,95838.91
2023-11-29T12:40:19.292Z,95854.16
2023-11-29T12:42:49.253Z,95871.09
2023-11-29T12:45:20.011Z,95878.91
2023-11-29T12:47:47.887Z,95863.28
2023-11-29T12:50:15.898Z,95868.00
2023-11-29T12:52:43.023Z,95867.28
2023-11-29T12:55:10.184Z,95853.69
2023-11-29T12:57:37.794Z,95885.06
2023-11-29T13:00:06.649Z,95872.72
2023-11-29T13:02:34.063Z,95859.50
2023-11-29T13:05:01.973Z,95836.06
2023-11-29T13:07:32.583Z,95856.44
2023-11-29T13:10:00.415Z,95882.44
2023-11-29T13:12:29.036Z,95890.47
2023-11-29T13:14:58.812Z,95890.13
2023-11-29T13:17:26.056Z,95872.38
2023-11-29T13:19:53.168Z,95894.44
2023-11-29T13:22:21.417Z,95860.72
2023-11-29T13:24:48.537Z,95881.81
2023-11-29T13:27:17.032Z,95922.09
2023-11-29T13:29:44.829Z,95912.28
2023-11-29T13:32:14.497Z,95914.03
2023-11-29T13:34:42.136Z,95926.06
2023-11-29T13:37:10.436Z,95923.56
2023-11-29T13:39:37.740Z,95922.22
2023-11-29T13:42:05.325Z,95906.22
2023-11-29T13:44:32.914Z,95878.84
2023-11-29T13:47:00.163Z,95863.84
2023-11-29T13:49:27.268Z,95917.47
2023-11-29T13:52:04.289Z,95935.06
2023-11-29T13:54:39.733Z,95893.22
2023-11-29T13:57:06.960Z,95922.44
2023-11-29T13:59:37.709Z,95935.50
2023-11-29T14:02:14.403Z,95939.41
2023-11-29T14:04:45.242Z,95905.63
2023-11-29T14:07:13.533Z,95954.47
2023-11-29T14:09:40.688Z,95962.41
2023-11-29T14:12:08.070Z,95969.00
2023-11-29T14:14:35.197Z,95977.16
2023-11-29T14:17:02.705Z,95969.44
2023-11-29T14:19:29.815Z,95981.75
2023-11-29T14:21:56.872Z,95972.41
2023-11-29T14:24:25.481Z,95950.31
2023-11-29T14:26:54.461Z,96005.84
2023-11-29T14:29:23.749Z,95945.94
2023-11-29T14:31:53.053Z,95995.97
2023-11-29T14:34:22.443Z,95982.28
2023-11-29T14:36:54.812Z,96017.88
2023-11-29T14:39:26.358Z,96028.66
2023-11-29T14:41:54.714Z,96036.44
2023-11-29T14:44:22.262Z,96023.91
2023-11-29T14:46:49.978Z,96046.94
2023-11-29T14:49:26.205Z,96055.75
2023-11-29T14:51:57.845Z,96064.00
2023-11-29T14:54:26.309Z,96073.75
2023-11-29T14:56:54.317Z,96080.69
2023-11-29T14:59:21.641Z,96033.66
2023-11-29T15:01:48.776Z,96089.84
2023-11-29T15:04:15.900Z,96118.47
2023-11-29T15:06:44.222Z,96104.06
2023-11-29T15:09:11.502Z,96123.03
2023-11-29T15:11:38.766Z,96139.53
2023-11-29T15:14:05.898Z,96150.63
2023-11-29T15:16:33.947Z,96148.50
2023-11-29T15:19:03.657Z,96163.16
2023-11-29T15:21:31.268Z,96115.81
2023-11-29T15:23:58.701Z,96124.13
2023-11-29T15:26:25.829Z,96172.75
2023-11-29T15:28:53.228Z,96192.19
2023-11-29T15:31:20.842Z,96207.38
2023-11-29T15:33:47.942Z,96192.94
2023-11-29T15:36:16.290Z,96206.81
2023-11-29T15:38:43.454Z,96164.84
2023-11-29T15:41:10.469Z,96222.88
2023-11-29T15:43:37.455Z,96231.94
2023-11-29T15:46:05.903Z,96227.56
2023-11-29T15:48:37.314Z,96248.94
2023-11-29T15:51:06.054Z,96234.28
2023-11-29T15:53:35.815Z,96261.22
2023-11-29T15:56:03.973Z,96217.06
2023-11-29T15:58:31.307Z,96251.56
2023-11-29T16:00:58.421Z,96215.31
2023-11-29T16:03:25.489Z,96272.84
2023-11-29T16:05:57.589Z,96230.88
2023-11-29T16:08:24.656Z,96268.41
2023-11-29T16:10:51.767Z,96281.34
2023-11-29T16:13:19.068Z,96216.53
2023-11-29T16:15:47.656Z,96272.84
2023-11-29T16:18:14.941Z,96266.50
2023-11-29T16:20:42.172Z,96285.09
2023-11-29T16:23:10.292Z,96287.00
2023-11-29T16:25:37.381Z,96312.31
2023-11-29T16:28:04.707Z,96314.47
2023-11-29T16:30:32.346Z,96305.81
2023-11-29T16:32:59.647Z,96316.28
2023-11-29T16:35:26.739Z,96312.53
2023-11-29T16:37:53.809Z,96306.56
2023-11-29T16:40:22.514Z,96270.09
2023-11-29T16:42:49.674Z,96285.88
2023-11-29T16:45:17.031Z,96291.88
2023-11-29T16:47:44.235Z,96305.75
2023-11-29T16:50:11.591Z,96295.22
2023-11-29T16:52:38.962Z,96313.09
2023-11-29T16:55:06.917Z,96307.78
2023-11-29T16:57:33.888Z,96289.81
2023-11-29T17:00:00.938Z,96316.63
2023-11-29T17:02:28.825Z,96274.41
2023-11-29T17:04:56.124Z,96252.63
2023-11-29T17:07:23.358Z,96323.13
2023-11-29T17:09:50.365Z,96316.69
2023-11-29T17:12:18.443Z,96313.72
2023-11-29T17:14:48.789Z,96330.28
2023-11-29T17:17:22.758Z,96313.59
2023-11-29T17:19:51.519Z,96344.97
2023-11-29T17:22:21.522Z,96355.34
2023-11-29T17:24:48.735Z,96365.59
2023-11-29T17:27:15.972Z,96344.56
2023-11-29T17:29:42.991Z,96379.38
2023-11-29T17:32:10.026Z,96388.78
2023-11-29T17:34:37.050Z,96356.69
2023-11-29T17:37:05.383Z,96383.81
2023-11-29T17:39:32.868Z,96372.03
2023-11-29T17:41:59.952Z,96403.13
2023-11-29T17:44:27.065Z,96424.31
2023-11-29T17:46:54.936Z,96420.63
2023-11-29T17:49:22.033Z,96423.69
2023-11-29T17:51:49.091Z,96397.13
2023-11-29T17:54:19.207Z,96376.72
2023-11-29T17:56:46.260Z,96412.31
2023-11-29T17:59:14.424Z,96411.75
2023-11-29T18:01:42.483Z,96428.75
2023-11-29T18:04:10.269Z,96424.03
2023-11-29T18:06:39.938Z,96418.97
2023-11-29T18:09:08.720Z,96439.69
2023-11-29T18:11:37.020Z,96435.72
2023-11-29T18:14:04.059Z,96391.97
2023-11-29T18:16:31.568Z,96440.88
2023-11-29T18:18:58.755Z,96448.19
2023-11-29T18:21:26.091Z,96448.09
2023-11-29T18:23:56.002Z,96412.00
2023-11-29T18:26:23.762Z,96477.41
2023-11-29T18:28:54.027Z,96477.41
2023-11-29T18:31:21.298Z,96463.91
2023-11-29T18:33:48.552Z,96484.81
2023-11-29T18:36:17.324Z,96465.88
2023-11-29T18:38:44.598Z,96477.94
2023-11-29T18:41:11.729Z,96483.72
2023-11-29T18:43:42.706Z,96486.63
2023-11-29T18:46:09.908Z,96492.94
2023-11-29T18:48:37.070Z,96495.81
2023-11-29T18:51:07.237Z,96505.91
2023-11-29T18:53:34.477Z,96476.47
2023-11-29T18:56:01.606Z,96498.03
2023-11-29T18:58:29.796Z,96473.97
2023-11-29T19:00:57.017Z,96497.50
2023-11-29T19:03:27.920Z,96507.13
2023-11-29T19:05:58.762Z,96521.97
2023-11-29T19:08:28.952Z,96527.66
2023-11-29T19:11:11.440Z,96529.84
2023-11-29T19:13:38.589Z,96532.91
2023-11-29T19:16:06.185Z,96522.03
2023-11-29T19:18:33.307Z,96527.19
2023-11-29T19:21:00.670Z,96521.34
2023-11-29T19:23:35.671Z,96536.41
2023-11-29T19:26:05.692Z,96526.56
2023-11-29T19:28:33.290Z,96503.81
2023-11-29T19:31:01.458Z,96539.75
2023-11-29T19:33:30.912Z,96538.94
2023-11-29T19:35:58.203Z,96535.22
2023-11-29T19:38:25.567Z,96532.41
2023-11-29T19:40:55.872Z,96547.06
2023-11-29T19:43:22.984Z,96530.91
2023-11-29T19:45:49.977Z,96541.84
2023-11-29T19:48:17.083Z,96525.44
2023-11-29T19:50:44.250Z,96530.97
2023-11-29T19:53:11.269Z,96521.28
2023-11-29T19:55:38.304Z,96527.91
2023-11-29T19:58:06.043Z,96540.13
2023-11-29T20:00:35.180Z,96533.13
2023-11-29T20:03:02.329Z,96524.50
2023-11-29T20:05:29.532Z,96523.16
2023-11-29T20:07:56.502Z,96512.53
2023-11-29T20:10:23.538Z,96512.84
2023-11-29T20:12:50.607Z,96520.34
2023-11-29T20:15:17.693Z,96526.50
2023-11-29T20:17:44.901Z,96533.56
2023-11-29T20:20:16.631Z,96537.09
2023-11-29T20:22:48.295Z,96532.28
2023-11-29T20:25:15.458Z,96529.53
2023-11-29T20:27:43.355Z,96518.13
2023-11-29T20:30:11.401Z,96513.16
2023-11-29T20:32:38.471Z,96518.84
2023-11-29T20:35:25.069Z,96524.50
2023-11-29T20:37:54.274Z,96522.75
2023-11-29T20:40:21.303Z,96495.69
2023-11-29T20:42:48.420Z,96520.34
2023-11-29T20:45:15.608Z,96513.16
2023-11-29T20:47:42.771Z,96518.00
2023-11-29T20:50:13.057Z,96503.66
2023-11-29T20:52:40.044Z,96520.66
2023-11-29T20:55:07.420Z,96509.91
2023-11-29T20:57:34.623Z,96529.22
2023-11-29T21:00:01.696Z,96520.88
2023-11-29T21:02:31.318Z,96515.31
2023-11-29T21:04:58.368Z,96529.38
2023-11-29T21:07:25.549Z,96532.06
2023-11-29T21:09:52.546Z,96539.84
2023-11-29T21:12:19.527Z,96546.97
2023-11-29T21:14:47.029Z,96534.16
2023-11-29T21:17:14.090Z,96556.13
2023-11-29T21:19:41.226Z,96544.97
2023-11-29T21:22:08.222Z,96531.72
2023-11-29T21:24:35.313Z,96532.44
2023-11-29T21:27:02.472Z,96541.94
2023-11-29T21:29:30.006Z,96540.41
2023-11-29T21:31:57.281Z,96552.75
2023-11-29T21:34:24.436Z,96537.84
2023-11-29T21:36:51.509Z,96531.19
2023-11-29T21:39:18.696Z,96487.91
2023-11-29T21:41:47.164Z,96549.19
2023-11-29T21:44:14.333Z,96547.63
2023-11-29T21:46:41.492Z,96542.66
2023-11-29T21:49:08.664Z,96551.50
2023-11-29T21:51:35.694Z,96561.84
2023-11-29T21:54:02.878Z,96555.03
2023-11-29T21:56:30.145Z,96556.06
2023-11-29T21:58:57.181Z,96494.00
2023-11-29T22:01:25.936Z,96571.28
2023-11-29T22:03:53.132Z,96567.53
2023-11-29T22:06:20.222Z,96567.44
2023-11-29T22:08:51.124Z,96553.69
2023-11-29T22:11:19.254Z,96535.56
2023-11-29T22:13:47.047Z,96556.75
2023-11-29T22:16:24.260Z,96562.59
2023-11-29T22:18:52.770Z,96568.41
2023-11-29T22:21:27.081Z,96556.44
2023-11-29T22:23:56.823Z,96560.28
2023-11-29T22:26:24.440Z,96563.75
2023-11-29T22:28:51.512Z,96564.50
2023-11-29T22:31:18.575Z,96562.31
2023-11-29T22:33:45.662Z,96562.53
2023-11-29T22:36:21.924Z,96556.75
2023-11-29T22:38:49.525Z,96562.59
2023-11-29T22:41:25.334Z,96580.09
2023-11-29T22:43:54.081Z,96595.75
2023-11-29T22:46:24.075Z,96604.91
2023-11-29T22:48:51.370Z,96594.31
2023-11-29T22:51:23.215Z,96611.47
2023-11-29T22:53:52.119Z,96544.50
2023-11-29T22:56:19.374Z,96610.59
2023-11-29T22:58:47.891Z,96604.59
2023-11-29T23:01:17.996Z,96605.88
2023-11-29T23:03:45.034Z,96592.66
2023-11-29T23:06:12.742Z,96616.25
2023-11-29T23:08:40.184Z,96616.41
2023-11-29T23:11:07.649Z,96622.97
2023-11-29T23:13:34.682Z,96628.38
2023-11-29T23:16:01.732Z,96569.03
2023-11-29T23:18:28.927Z,96614.19
2023-11-29T23:20:56.086Z,96612.13
2023-11-29T23:23:26.676Z,96626.78
2023-11-29T23:25:54.558Z,96639.25
2023-11-29T23:28:21.624Z,96629.72
2023-11-29T23:30:49.114Z,96636.34
2023-11-29T23:33:16.219Z,96645.66
2023-11-29T23:35:43.321Z,96593.75
2023-11-29T23:38:10.320Z,96646.53
2023-11-29T23:40:37.305Z,96658.16
2023-11-29T23:43:04.292Z,96662.47
2023-11-29T23:45:35.613Z,96670.03
2023-11-29T23:48:04.076Z,96668.81
2023-11-29T23:50:31.409Z,96675.16
2023-11-29T23:52:58.406Z,96661.66
2023-11-29T23:55:25.648Z,96679.44
2023-11-29T23:57:52.710Z,96675.34
